Time;durP1;ratioP1;P1;durP2;ratioP2;P2;SDS_P1;SDS_P2;PMS_P1;PMS_P2;Temp;Humidity;BMP_temperature;BMP_pressure;BME280_temperature;BME280_humidity;BME280_pressure;Samples;Min_cycle;Max_cycle;Signal;HPM_P1;HPM_P2
2023/10/28 00:00:31;;;;;;;1.00;0.70;;;12.00;99.90;;;;;;5033323;28;20447;-75
2023/10/28 00:02:57;;;;;;;1.47;0.70;;;12.00;99.90;;;;;;5033496;28;20250;-75
2023/10/28 00:05:24;;;;;;;1.90;0.87;;;12.10;99.90;;;;;;5033358;28;20277;-74
2023/10/28 00:07:50;;;;;;;1.83;0.93;;;12.10;99.90;;;;;;5033529;28;20177;-75
2023/10/28 00:10:16;;;;;;;1.00;0.80;;;12.00;99.90;;;;;;5033294;28;20898;-75
2023/10/28 00:12:41;;;;;;;0.97;0.70;;;12.10;99.90;;;;;;5033476;28;20414;-76
2023/10/28 00:15:08;;;;;;;1.33;0.80;;;12.10;99.90;;;;;;4998613;28;20765;-76
2023/10/28 00:17:33;;;;;;;1.70;0.70;;;12.00;99.90;;;;;;5033010;28;20234;-75
2023/10/28 00:20:04;;;;;;;0.90;0.77;;;12.00;99.90;;;;;;5033337;28;20544;-76
2023/10/28 00:22:33;;;;;;;2.10;0.80;;;11.90;99.90;;;;;;5033362;28;20171;-76
2023/10/28 00:24:59;;;;;;;1.73;0.80;;;11.90;99.90;;;;;;5032899;28;20419;-75
2023/10/28 00:27:25;;;;;;;2.10;0.90;;;12.00;99.90;;;;;;5032434;28;20494;-75
2023/10/28 00:29:52;;;;;;;1.00;0.70;;;11.90;99.90;;;;;;5032870;28;20238;-76
2023/10/28 00:32:22;;;;;;;0.90;0.60;;;12.00;99.90;;;;;;5032847;28;20790;-76
2023/10/28 00:34:51;;;;;;;0.70;0.60;;;12.00;99.90;;;;;;5032839;28;20433;-75
2023/10/28 00:37:17;;;;;;;1.10;0.60;;;12.00;99.90;;;;;;5033693;28;20424;-76
2023/10/28 00:39:43;;;;;;;0.80;0.60;;;12.10;99.90;;;;;;5014835;28;20968;-75
2023/10/28 00:42:13;;;;;;;1.00;0.57;;;12.00;99.90;;;;;;5032734;28;20411;-75
2023/10/28 00:44:39;;;;;;;1.00;0.70;;;11.90;99.90;;;;;;5032651;28;20836;-75
2023/10/28 00:47:05;;;;;;;5.93;0.70;;;12.00;99.90;;;;;;5032009;28;20792;-75
2023/10/28 00:49:31;;;;;;;2.37;0.80;;;12.00;99.90;;;;;;5032863;28;20410;-76
2023/10/28 00:51:58;;;;;;;1.30;0.97;;;12.00;99.90;;;;;;5032526;28;20508;-75
2023/10/28 00:54:25;;;;;;;1.57;0.90;;;11.90;99.90;;;;;;5032451;28;20192;-76
2023/10/28 00:56:52;;;;;;;0.80;0.60;;;11.90;99.90;;;;;;5032555;28;20411;-75
2023/10/28 00:59:17;;;;;;;1.00;0.50;;;11.70;99.90;;;;;;5032289;28;20763;-74
2023/10/28 01:01:43;;;;;;;3.43;1.07;;;11.70;99.90;;;;;;5032328;28;20418;-76
2023/10/28 01:04:09;;;;;;;1.20;0.70;;;11.80;99.90;;;;;;5032407;28;20684;-75
2023/10/28 01:06:34;;;;;;;2.40;0.87;;;11.80;99.90;;;;;;5032305;28;20171;-75
2023/10/28 01:09:00;;;;;;;1.50;0.80;;;11.70;99.90;;;;;;5032422;28;20634;-76
2023/10/28 01:11:25;;;;;;;1.13;0.60;;;11.80;99.90;;;;;;5032160;28;20610;-75
2023/10/28 01:13:51;;;;;;;2.70;0.93;;;11.80;99.90;;;;;;5032308;28;20266;-76
2023/10/28 01:16:16;;;;;;;1.00;0.80;;;11.90;99.90;;;;;;5032668;28;20224;-75
2023/10/28 01:18:42;;;;;;;2.80;1.00;;;11.80;99.90;;;;;;5032300;28;20201;-75
2023/10/28 01:21:14;;;;;;;1.10;0.60;;;11.60;99.90;;;;;;5031969;28;20689;-75
2023/10/28 01:23:40;;;;;;;1.10;0.70;;;11.60;99.90;;;;;;5032274;28;20278;-75
2023/10/28 01:26:05;;;;;;;2.50;0.90;;;11.60;99.90;;;;;;5030754;28;20889;-75
2023/10/28 01:28:32;;;;;;;1.07;0.70;;;11.70;99.90;;;;;;5031844;28;20471;-75
2023/10/28 01:30:59;;;;;;;1.33;0.97;;;11.80;99.90;;;;;;5031898;28;20183;-74
2023/10/28 01:33:25;;;;;;;2.50;0.70;;;11.70;99.90;;;;;;5031999;28;20408;-75
2023/10/28 01:35:50;;;;;;;2.20;0.80;;;11.70;99.90;;;;;;5014073;28;20794;-75
2023/10/28 01:38:17;;;;;;;1.57;0.70;;;11.60;99.90;;;;;;5031760;28;20289;-75
2023/10/28 01:40:42;;;;;;;1.37;0.90;;;11.60;99.90;;;;;;5032091;28;20403;-75
2023/10/28 01:43:08;;;;;;;0.90;0.70;;;11.70;99.90;;;;;;5032002;28;20923;-75
2023/10/28 01:45:34;;;;;;;1.40;0.70;;;11.70;99.90;;;;;;5032167;28;20174;-75
2023/10/28 01:47:59;;;;;;;2.10;0.90;;;11.70;99.90;;;;;;5014046;28;20179;-75
2023/10/28 01:50:25;;;;;;;2.70;0.90;;;11.80;99.90;;;;;;5031683;28;20408;-75
2023/10/28 01:52:50;;;;;;;1.30;0.83;;;11.70;99.90;;;;;;5031911;28;20160;-75
2023/10/28 01:55:16;;;;;;;1.20;0.67;;;11.80;99.90;;;;;;5031707;28;20289;-74
2023/10/28 01:57:41;;;;;;;2.73;1.03;;;11.60;99.90;;;;;;5031800;28;20164;-76
2023/10/28 02:00:12;;;;;;;1.63;0.80;;;11.70;99.90;;;;;;5031840;28;20688;-75
2023/10/28 02:02:38;;;;;;;1.43;0.90;;;11.80;99.90;;;;;;5031739;28;20156;-74
2023/10/28 02:05:04;;;;;;;1.53;0.80;;;11.80;99.90;;;;;;5031578;28;20418;-75
2023/10/28 02:07:29;;;;;;;1.30;0.77;;;11.70;99.90;;;;;;5031487;28;20422;-75
2023/10/28 02:09:55;;;;;;;1.43;1.07;;;11.70;99.90;;;;;;5031869;28;20410;-73
2023/10/28 02:12:21;;;;;;;3.37;1.10;;;11.80;99.90;;;;;;5031728;28;20199;-75
2023/10/28 02:14:47;;;;;;;1.27;0.80;;;11.80;99.90;;;;;;5055358;22;20522;-73
2023/10/28 02:17:13;;;;;;;3.00;1.10;;;11.80;99.90;;;;;;5031698;28;20200;-74
2023/10/28 02:19:39;;;;;;;2.13;0.90;;;11.90;99.90;;;;;;5031743;28;20199;-74
2023/10/28 02:22:04;;;;;;;1.23;0.83;;;12.00;99.90;;;;;;5031003;28;20423;-74
2023/10/28 02:24:30;;;;;;;2.30;0.90;;;12.00;99.90;;;;;;5031251;28;20218;-73
2023/10/28 02:26:55;;;;;;;1.37;0.60;;;11.80;99.90;;;;;;5031751;28;20161;-73
2023/10/28 02:29:22;;;;;;;1.50;1.00;;;11.70;99.90;;;;;;5031497;28;20665;-73
2023/10/28 02:31:48;;;;;;;1.67;0.83;;;11.90;99.90;;;;;;5031464;28;20254;-73
2023/10/28 02:34:14;;;;;;;1.27;0.90;;;11.90;99.90;;;;;;5031575;28;20441;-74
2023/10/28 02:36:40;;;;;;;2.53;1.47;;;11.90;99.90;;;;;;5013882;28;20420;-74
2023/10/28 02:39:06;;;;;;;1.13;0.70;;;11.90;99.90;;;;;;5034437;28;20598;-74
2023/10/28 02:41:31;;;;;;;2.60;1.20;;;11.80;99.90;;;;;;5034950;28;20160;-74
2023/10/28 02:43:58;;;;;;;1.27;1.00;;;11.90;99.90;;;;;;5034632;28;20184;-74
2023/10/28 02:46:25;;;;;;;1.93;1.20;;;12.00;99.90;;;;;;5034507;28;20168;-73
2023/10/28 02:48:51;;;;;;;2.30;1.10;;;12.00;99.90;;;;;;5034732;28;20401;-73
2023/10/28 02:51:17;;;;;;;1.50;0.83;;;12.10;99.90;;;;;;5034605;28;20417;-73
2023/10/28 02:53:43;;;;;;;3.57;1.13;;;12.10;99.90;;;;;;5016615;28;20436;-73
2023/10/28 02:56:09;;;;;;;2.00;1.00;;;11.90;99.90;;;;;;5034984;28;20412;-73
2023/10/28 02:58:35;;;;;;;4.73;1.47;;;11.80;99.90;;;;;;5034242;28;20182;-73
2023/10/28 03:01:11;;;;;;;3.17;1.20;;;11.80;99.90;;;;;;5034454;28;20163;-73
2023/10/28 03:03:39;;;;;;;1.40;1.00;;;11.90;99.90;;;;;;5034395;28;20658;-74
2023/10/28 03:06:04;;;;;;;3.37;1.17;;;12.00;99.90;;;;;;5034344;28;20401;-74
2023/10/28 03:08:30;;;;;;;4.30;1.10;;;12.00;99.90;;;;;;5016460;28;20492;-74
2023/10/28 03:10:56;;;;;;;3.83;1.40;;;11.90;99.90;;;;;;5034267;28;20402;-74
2023/10/28 03:13:21;;;;;;;3.43;1.00;;;11.80;99.90;;;;;;5034314;28;20156;-74
2023/10/28 03:15:47;;;;;;;3.97;1.53;;;11.90;99.90;;;;;;4997886;28;1069042;-74
2023/10/28 03:18:16;;;;;;;2.77;1.27;;;12.00;99.90;;;;;;5035184;28;20667;-74
2023/10/28 03:20:41;;;;;;;2.80;1.23;;;12.00;99.90;;;;;;5035203;28;20226;-74
2023/10/28 03:23:07;;;;;;;4.57;2.03;;;11.90;99.90;;;;;;5017482;28;20928;-74
2023/10/28 03:25:33;;;;;;;5.17;1.37;;;11.80;99.90;;;;;;5034709;28;20200;-74
2023/10/28 03:28:02;;;;;;;4.07;1.40;;;11.80;99.90;;;;;;5017668;28;20691;-74
2023/10/28 03:30:27;;;;;;;2.87;1.60;;;11.80;99.90;;;;;;5035248;28;20181;-74
2023/10/28 03:32:53;;;;;;;3.90;1.40;;;11.80;99.90;;;;;;5034938;28;20970;-74
2023/10/28 03:35:18;;;;;;;2.83;1.30;;;11.70;99.90;;;;;;5034795;28;20230;-74
2023/10/28 03:37:44;;;;;;;2.80;1.07;;;11.80;99.90;;;;;;5035017;28;20549;-74
2023/10/28 03:40:11;;;;;;;4.97;1.43;;;11.60;99.90;;;;;;5035263;28;20278;-74
2023/10/28 03:42:37;;;;;;;4.03;1.87;;;11.50;99.90;;;;;;5034756;28;20171;-74
2023/10/28 03:45:04;;;;;;;2.63;1.33;;;11.70;99.90;;;;;;5034997;28;20762;-74
2023/10/28 03:47:29;;;;;;;5.67;1.47;;;11.80;99.90;;;;;;5034631;28;20416;-74
2023/10/28 03:49:56;;;;;;;2.70;1.37;;;11.80;99.90;;;;;;5033777;28;20417;-74
2023/10/28 03:52:21;;;;;;;5.60;1.47;;;11.80;99.90;;;;;;5034675;28;20209;-74
2023/10/28 03:54:47;;;;;;;8.77;2.63;;;11.80;99.90;;;;;;5034808;28;20563;-74
2023/10/28 03:57:13;;;;;;;3.10;1.40;;;11.80;99.90;;;;;;5034651;28;20615;-74
2023/10/28 03:59:38;;;;;;;3.33;1.27;;;11.80;99.90;;;;;;5034449;28;20219;-74
2023/10/28 04:02:04;;;;;;;5.07;1.60;;;11.80;99.90;;;;;;5035067;28;20175;-74
2023/10/28 04:04:30;;;;;;;4.27;1.60;;;11.70;99.90;;;;;;5016695;28;20191;-74
2023/10/28 04:06:55;;;;;;;2.10;1.40;;;11.70;99.90;;;;;;5034654;28;20496;-74
2023/10/28 04:09:22;;;;;;;4.07;1.50;;;11.70;99.90;;;;;;5034367;28;20642;-73
2023/10/28 04:11:48;;;;;;;3.33;1.20;;;11.80;99.90;;;;;;5034418;28;20218;-73
2023/10/28 04:14:13;;;;;;;2.40;1.50;;;11.90;99.90;;;;;;5016751;28;20454;-74
2023/10/28 04:16:39;;;;;;;3.90;1.90;;;11.90;99.90;;;;;;5033971;28;20579;-74
2023/10/28 04:19:05;;;;;;;3.93;1.30;;;11.90;99.90;;;;;;5034743;28;20206;-74
2023/10/28 04:21:30;;;;;;;3.87;1.60;;;11.90;99.90;;;;;;5034259;28;20209;-73
2023/10/28 04:23:56;;;;;;;3.93;1.77;;;11.70;99.90;;;;;;5034058;28;20193;-74
2023/10/28 04:26:22;;;;;;;3.13;1.40;;;11.80;99.90;;;;;;5034049;28;20275;-73
2023/10/28 04:28:48;;;;;;;2.70;1.13;;;11.80;99.90;;;;;;5033994;28;20265;-74
2023/10/28 04:31:15;;;;;;;6.13;1.47;;;11.90;99.90;;;;;;5034162;28;20180;-74
2023/10/28 04:33:41;;;;;;;2.30;1.13;;;11.80;99.90;;;;;;5034092;28;20414;-75
2023/10/28 04:36:09;;;;;;;2.33;1.57;;;11.80;99.90;;;;;;5033719;28;20499;-73
2023/10/28 04:38:36;;;;;;;3.77;1.27;;;11.90;99.90;;;;;;5033468;28;20777;-73
2023/10/28 04:41:02;;;;;;;1.63;1.10;;;11.70;99.90;;;;;;5024048;28;20429;-73
2023/10/28 04:43:29;;;;;;;3.33;1.30;;;11.70;99.90;;;;;;5044809;28;20415;-72
2023/10/28 04:45:54;;;;;;;2.20;1.10;;;11.70;99.90;;;;;;5034351;28;20198;-74
2023/10/28 04:48:21;;;;;;;3.37;0.90;;;11.70;99.90;;;;;;5024775;28;20788;-74
2023/10/28 04:50:47;;;;;;;2.20;1.00;;;11.70;99.90;;;;;;5045861;28;20160;-74
2023/10/28 04:53:13;;;;;;;2.70;1.17;;;11.70;99.90;;;;;;5043833;28;20412;-74
2023/10/28 04:55:38;;;;;;;3.07;1.20;;;11.70;99.90;;;;;;5033469;28;20604;-74
2023/10/28 04:58:05;;;;;;;3.73;1.30;;;11.70;99.90;;;;;;5033569;28;20176;-74
2023/10/28 05:00:31;;;;;;;1.73;1.13;;;11.80;99.90;;;;;;5033378;28;20735;-74
2023/10/28 05:02:56;;;;;;;1.27;1.07;;;11.60;99.90;;;;;;5033683;28;20404;-74
2023/10/28 05:05:22;;;;;;;2.80;1.00;;;11.50;99.90;;;;;;5033357;28;20649;-74
2023/10/28 05:07:47;;;;;;;4.43;1.30;;;11.60;99.90;;;;;;5033306;28;20185;-74
2023/10/28 05:10:13;;;;;;;1.43;1.00;;;11.50;99.90;;;;;;5015795;28;20262;-74
2023/10/28 05:12:40;;;;;;;2.60;0.90;;;11.60;99.90;;;;;;5033455;28;20193;-74
2023/10/28 05:15:10;;;;;;;2.30;1.10;;;11.60;99.90;;;;;;5032968;28;20218;-74
2023/10/28 05:17:36;;;;;;;1.70;0.93;;;11.60;99.90;;;;;;5033198;28;20409;-74
2023/10/28 05:20:06;;;;;;;2.70;1.10;;;11.60;99.90;;;;;;5033506;28;20488;-74
2023/10/28 05:22:36;;;;;;;1.73;1.17;;;11.60;99.90;;;;;;5033326;28;20398;-74
2023/10/28 05:25:07;;;;;;;1.73;0.90;;;11.60;99.90;;;;;;5015209;28;20460;-74
2023/10/28 05:27:33;;;;;;;2.13;1.00;;;11.80;99.90;;;;;;5015179;28;20403;-74
2023/10/28 05:29:59;;;;;;;2.17;0.90;;;11.70;99.90;;;;;;5032632;28;20425;-73
2023/10/28 05:32:26;;;;;;;3.00;1.23;;;11.60;99.90;;;;;;5032924;28;20408;-74
2023/10/28 05:34:51;;;;;;;3.30;1.13;;;11.50;99.90;;;;;;5032916;28;21066;-73
2023/10/28 05:37:17;;;;;;;2.80;1.30;;;11.60;99.90;;;;;;5033009;28;20434;-73
2023/10/28 05:39:43;;;;;;;1.73;1.03;;;11.70;99.90;;;;;;5032989;28;20218;-73
2023/10/28 05:42:11;;;;;;;1.80;1.30;;;11.60;99.90;;;;;;5032815;28;20407;-73
2023/10/28 05:44:37;;;;;;;2.50;1.27;;;11.60;99.90;;;;;;5014942;28;20246;-73
2023/10/28 05:47:02;;;;;;;5.17;1.80;;;11.40;99.90;;;;;;5032971;28;20425;-73
2023/10/28 05:49:28;;;;;;;5.90;1.50;;;11.40;99.90;;;;;;5032874;28;20406;-73
2023/10/28 05:51:54;;;;;;;4.00;1.10;;;11.40;99.90;;;;;;5032742;28;20440;-73
2023/10/28 05:54:20;;;;;;;2.63;1.03;;;11.40;99.90;;;;;;5032639;28;20217;-73
2023/10/28 05:56:46;;;;;;;2.60;1.30;;;11.40;99.90;;;;;;5032812;28;20179;-73
2023/10/28 05:59:11;;;;;;;1.83;1.20;;;11.50;99.90;;;;;;5032768;28;20952;-73
2023/10/28 06:01:37;;;;;;;2.10;1.10;;;11.50;99.90;;;;;;5032630;28;20575;-73
2023/10/28 06:04:03;;;;;;;1.43;0.90;;;11.60;99.90;;;;;;5032939;28;20532;-73
2023/10/28 06:06:29;;;;;;;2.80;1.47;;;11.50;99.90;;;;;;5032564;28;20168;-73
2023/10/28 06:08:57;;;;;;;2.20;1.60;;;11.50;99.90;;;;;;5014772;28;20568;-73
2023/10/28 06:11:23;;;;;;;6.30;3.33;;;11.60;99.90;;;;;;5032239;28;20170;-73
2023/10/28 06:13:48;;;;;;;8.33;4.70;;;11.60;99.90;;;;;;5017853;28;20563;-73
2023/10/28 06:16:14;;;;;;;2.23;1.17;;;11.60;99.90;;;;;;5036661;28;20382;-73
2023/10/28 06:18:40;;;;;;;2.33;1.23;;;11.50;99.90;;;;;;5035731;28;20217;-73
2023/10/28 06:21:06;;;;;;;3.70;1.80;;;11.70;99.90;;;;;;5036274;28;20559;-73
2023/10/28 06:23:32;;;;;;;1.60;0.87;;;11.70;99.90;;;;;;5036215;28;20172;-73
2023/10/28 06:25:57;;;;;;;3.30;1.67;;;11.70;99.90;;;;;;5018370;28;20407;-73
2023/10/28 06:28:23;;;;;;;2.23;1.40;;;11.80;99.90;;;;;;5018261;28;20490;-73
2023/10/28 06:30:49;;;;;;;2.10;1.43;;;11.70;99.90;;;;;;5036221;28;20221;-73
2023/10/28 06:33:15;;;;;;;3.40;1.50;;;11.90;99.90;;;;;;5035959;28;20187;-74
2023/10/28 06:35:40;;;;;;;2.67;1.50;;;11.90;99.90;;;;;;5018277;28;20863;-74
2023/10/28 06:38:06;;;;;;;2.90;1.33;;;11.80;99.90;;;;;;5018233;28;20164;-74
2023/10/28 06:40:32;;;;;;;4.30;1.30;;;11.80;99.90;;;;;;5035963;28;20223;-74
2023/10/28 06:42:58;;;;;;;2.40;1.30;;;11.80;99.90;;;;;;5036334;28;20195;-74
2023/10/28 06:45:24;;;;;;;2.50;1.60;;;11.80;99.90;;;;;;5035945;28;20479;-74
2023/10/28 06:47:50;;;;;;;8.67;1.90;;;11.90;99.90;;;;;;5035939;28;20167;-74
2023/10/28 06:50:19;;;;;;;5.23;1.87;;;12.00;99.90;;;;;;5035824;28;20298;-74
2023/10/28 06:52:47;;;;;;;3.53;1.40;;;11.90;99.90;;;;;;5035763;28;20405;-74
2023/10/28 06:55:12;;;;;;;2.10;1.40;;;11.90;99.90;;;;;;5035744;28;20516;-74
2023/10/28 06:57:39;;;;;;;4.23;1.57;;;11.90;99.90;;;;;;5035591;28;20407;-74
2023/10/28 07:00:05;;;;;;;2.90;1.20;;;11.90;99.90;;;;;;5035547;28;20203;-75
2023/10/28 07:02:32;;;;;;;2.80;1.33;;;11.90;99.90;;;;;;5034870;28;20432;-74
2023/10/28 07:04:58;;;;;;;3.43;1.57;;;11.90;99.90;;;;;;5017777;28;20435;-73
2023/10/28 07:07:23;;;;;;;6.57;1.63;;;11.80;99.90;;;;;;5035392;28;20419;-74
2023/10/28 07:09:49;;;;;;;1.83;1.27;;;11.80;99.90;;;;;;5035682;28;20576;-74
2023/10/28 07:12:14;;;;;;;3.00;1.03;;;11.90;99.90;;;;;;5035610;28;20172;-74
2023/10/28 07:14:40;;;;;;;2.93;1.33;;;12.00;99.90;;;;;;5035133;28;20318;-74
2023/10/28 07:17:06;;;;;;;3.60;1.27;;;12.00;99.90;;;;;;5035095;28;20646;-73
2023/10/28 07:19:31;;;;;;;2.40;1.40;;;12.10;99.90;;;;;;5035033;28;20249;-73
2023/10/28 07:21:57;;;;;;;3.27;1.47;;;12.20;99.90;;;;;;5017378;28;20174;-74
2023/10/28 07:24:23;;;;;;;6.00;1.40;;;12.20;99.90;;;;;;5034059;28;20189;-73
2023/10/28 07:26:50;;;;;;;2.40;1.13;;;12.20;99.90;;;;;;5035040;28;20168;-74
2023/10/28 07:29:17;;;;;;;6.13;1.53;;;12.40;99.90;;;;;;5034844;28;20218;-73
2023/10/28 07:31:42;;;;;;;4.87;1.27;;;12.50;99.90;;;;;;5035092;28;20398;-74
2023/10/28 07:34:08;;;;;;;2.83;1.43;;;12.70;99.90;;;;;;5010860;28;20452;-75
2023/10/28 07:36:34;;;;;;;2.60;1.33;;;12.50;99.90;;;;;;5026738;28;20194;-74
2023/10/28 07:39:01;;;;;;;1.93;1.00;;;12.60;99.90;;;;;;5026567;28;20223;-76
2023/10/28 07:41:29;;;;;;;2.17;1.43;;;12.60;99.90;;;;;;5026704;28;20476;-74
2023/10/28 07:43:56;;;;;;;3.07;1.10;;;12.60;99.90;;;;;;5026322;28;20796;-74
2023/10/28 07:46:22;;;;;;;2.50;1.03;;;12.50;99.90;;;;;;5026702;28;20685;-74
2023/10/28 07:48:48;;;;;;;2.40;1.20;;;12.60;99.90;;;;;;5025586;28;20940;-73
2023/10/28 07:51:16;;;;;;;5.37;1.40;;;12.60;99.90;;;;;;5026438;28;20779;-75
2023/10/28 07:53:42;;;;;;;3.17;1.47;;;12.50;99.90;;;;;;5026932;28;20498;-77
2023/10/28 07:56:07;;;;;;;1.57;1.30;;;12.60;99.90;;;;;;5027425;28;20516;-76
2023/10/28 07:58:33;;;;;;;2.53;1.47;;;12.60;99.90;;;;;;5026792;28;20268;-76
2023/10/28 08:00:58;;;;;;;2.60;1.30;;;12.60;99.90;;;;;;5031127;28;20175;-75
2023/10/28 08:03:25;;;;;;;2.90;1.10;;;12.60;99.90;;;;;;5016590;28;20539;-75
2023/10/28 08:05:50;;;;;;;2.70;1.43;;;12.70;99.90;;;;;;5034144;28;20255;-75
2023/10/28 08:08:16;;;;;;;5.83;1.57;;;12.70;99.90;;;;;;5034212;28;20471;-76
2023/10/28 08:10:42;;;;;;;2.60;1.30;;;12.70;99.90;;;;;;5015965;28;20220;-75
2023/10/28 08:13:07;;;;;;;3.57;1.37;;;12.70;99.90;;;;;;5034509;28;20172;-76
2023/10/28 08:15:33;;;;;;;2.50;1.20;;;12.80;99.90;;;;;;5056797;22;20222;-74
2023/10/28 08:17:59;;;;;;;2.50;1.07;;;12.80;99.90;;;;;;5033300;28;20934;-74
2023/10/28 08:20:24;;;;;;;2.03;1.43;;;13.00;99.90;;;;;;5033186;28;20313;-74
2023/10/28 08:22:50;;;;;;;3.37;1.30;;;13.00;99.90;;;;;;5033204;28;20214;-74
2023/10/28 08:25:16;;;;;;;3.23;1.17;;;13.10;99.90;;;;;;5032787;28;20190;-75
2023/10/28 08:27:43;;;;;;;3.73;1.37;;;13.30;99.90;;;;;;5014917;28;20177;-74
2023/10/28 08:30:09;;;;;;;3.07;2.00;;;13.50;99.90;;;;;;5032837;28;20579;-76
2023/10/28 08:32:38;;;;;;;4.90;1.40;;;13.60;99.90;;;;;;5032977;28;20458;-75
2023/10/28 08:35:03;;;;;;;3.33;1.27;;;13.80;99.90;;;;;;5032274;28;20459;-74
2023/10/28 08:37:29;;;;;;;3.30;1.23;;;13.90;99.90;;;;;;5032597;28;20507;-75
2023/10/28 08:39:54;;;;;;;2.30;1.10;;;14.00;99.90;;;;;;5032505;28;20238;-73
2023/10/28 08:42:20;;;;;;;3.33;1.30;;;14.30;99.90;;;;;;5032631;28;20175;-74
2023/10/28 08:44:47;;;;;;;1.57;1.23;;;14.30;99.90;;;;;;5032599;28;20194;-74
2023/10/28 08:47:13;;;;;;;2.70;1.03;;;14.40;99.90;;;;;;5032391;28;20657;-74
2023/10/28 08:49:43;;;;;;;3.17;1.30;;;14.50;99.90;;;;;;5032912;28;20406;-74
2023/10/28 08:52:13;;;;;;;4.37;1.30;;;14.50;99.90;;;;;;5032641;28;20257;-74
2023/10/28 08:54:41;;;;;;;2.73;1.10;;;14.50;99.90;;;;;;5032581;28;20489;-75
2023/10/28 08:57:07;;;;;;;3.23;1.33;;;14.50;99.90;;;;;;5032381;28;20408;-74
2023/10/28 08:59:33;;;;;;;4.23;1.60;;;14.60;99.90;;;;;;5032484;28;20453;-74
2023/10/28 09:01:58;;;;;;;2.73;1.30;;;14.70;99.90;;;;;;5032492;28;20181;-74
2023/10/28 09:04:24;;;;;;;3.60;1.30;;;14.50;99.90;;;;;;5032453;28;20272;-75
2023/10/28 09:06:53;;;;;;;3.43;1.37;;;14.50;99.90;;;;;;5033018;28;20179;-75
2023/10/28 09:09:21;;;;;;;3.47;1.00;;;14.40;99.90;;;;;;5032284;28;20440;-73
2023/10/28 09:11:47;;;;;;;3.17;1.17;;;14.50;99.90;;;;;;5032538;28;20797;-74
2023/10/28 09:14:13;;;;;;;3.30;1.50;;;14.60;99.90;;;;;;5032104;28;20430;-75
2023/10/28 09:16:39;;;;;;;2.07;1.03;;;14.70;99.90;;;;;;5032378;28;20454;-74
2023/10/28 09:19:19;;;;;;;2.90;1.20;;;14.80;99.90;;;;;;5032086;28;20792;-74
2023/10/28 09:21:46;;;;;;;2.50;1.47;;;14.70;99.90;;;;;;5031943;28;20429;-75
2023/10/28 09:24:12;;;;;;;2.43;1.17;;;14.90;99.90;;;;;;5032103;28;20422;-75
2023/10/28 09:26:38;;;;;;;2.13;1.30;;;14.90;99.90;;;;;;5032277;28;20405;-75
2023/10/28 09:29:04;;;;;;;3.43;1.67;;;15.20;99.90;;;;;;5014803;28;20660;-76
2023/10/28 09:31:29;;;;;;;2.60;1.40;;;15.40;99.90;;;;;;5032639;28;20412;-75
2023/10/28 09:33:57;;;;;;;5.43;1.47;;;15.60;99.90;;;;;;5031968;28;20256;-74
2023/10/28 09:36:23;;;;;;;3.43;0.90;;;15.40;99.90;;;;;;5032255;28;20633;-73
2023/10/28 09:38:50;;;;;;;3.00;1.63;;;15.10;99.90;;;;;;5031620;28;20435;-75
2023/10/28 09:41:19;;;;;;;2.37;1.30;;;15.00;99.90;;;;;;5031932;28;20785;-75
2023/10/28 09:43:44;;;;;;;3.63;1.53;;;15.00;99.90;;;;;;5032055;28;20417;-75
2023/10/28 09:46:10;;;;;;;2.60;1.20;;;15.20;99.90;;;;;;5031341;28;20423;-75
2023/10/28 09:48:41;;;;;;;2.50;1.30;;;15.50;99.90;;;;;;5031369;28;20602;-75
2023/10/28 09:51:07;;;;;;;4.67;1.60;;;15.80;99.90;;;;;;5031807;28;20781;-75
2023/10/28 09:53:36;;;;;;;2.07;1.27;;;15.90;99.90;;;;;;5031837;28;20409;-75
2023/10/28 09:56:03;;;;;;;6.07;1.70;;;16.30;99.90;;;;;;5031472;28;20432;-75
2023/10/28 09:58:28;;;;;;;4.90;1.73;;;16.40;99.90;;;;;;5031517;28;20512;-75
2023/10/28 10:01:24;;;;;;;3.73;1.43;;;16.60;99.90;;;;;;5031646;28;20528;-75
2023/10/28 10:04:21;;;;;;;5.27;1.73;;;16.40;99.90;;;;;;5031503;28;20140;-76
2023/10/28 10:06:47;;;;;;;2.80;1.30;;;16.30;99.90;;;;;;5031524;28;20391;-75
2023/10/28 10:09:18;;;;;;;3.93;1.40;;;16.20;99.90;;;;;;5031764;28;20760;-76
2023/10/28 10:11:44;;;;;;;6.30;1.60;;;16.20;99.90;;;;;;5031975;28;20745;-75
2023/10/28 10:14:10;;;;;;;5.37;1.53;;;16.30;99.90;;;;;;5031540;28;20536;-76
2023/10/28 10:16:59;;;;;;;1.90;1.00;;;16.40;99.90;;;;;;5032321;28;20190;-75
2023/10/28 10:19:35;;;;;;;2.00;1.17;;;16.60;99.90;;;;;;5030844;28;20451;-76
2023/10/28 10:22:07;;;;;;;3.20;1.60;;;16.60;99.90;;;;;;5031737;28;20448;-74
2023/10/28 10:24:33;;;;;;;2.40;1.20;;;16.50;99.90;;;;;;5031611;28;20417;-75
2023/10/28 10:26:59;;;;;;;1.47;1.10;;;16.60;99.90;;;;;;5031391;28;20410;-75
2023/10/28 10:29:26;;;;;;;3.57;1.60;;;16.60;99.90;;;;;;5031358;28;20471;-75
2023/10/28 10:31:53;;;;;;;4.63;1.97;;;16.80;99.90;;;;;;5031077;28;20402;-75
2023/10/28 10:34:37;;;;;;;2.80;1.70;;;16.90;99.90;;;;;;5031440;28;20448;-75
2023/10/28 10:37:04;;;;;;;5.40;2.20;;;17.10;99.90;;;;;;5031658;28;20390;-76
2023/10/28 10:39:46;;;;;;;3.60;1.50;;;17.30;99.90;;;;;;5031294;28;20843;-75
2023/10/28 10:42:14;;;;;;;5.93;2.03;;;17.60;99.90;;;;;;5031882;28;20421;-75
2023/10/28 10:44:41;;;;;;;3.90;1.40;;;17.70;99.90;;;;;;5031406;28;20430;-75
2023/10/28 10:47:08;;;;;;;2.60;1.20;;;17.50;99.90;;;;;;5013392;28;20520;-75
2023/10/28 10:49:36;;;;;;;3.83;2.30;;;18.20;99.90;;;;;;5031270;28;20421;-74
2023/10/28 10:52:03;;;;;;;2.63;1.50;;;19.70;99.90;;;;;;5013879;28;20987;-73
2023/10/28 10:54:30;;;;;;;2.40;1.47;;;20.60;98.10;;;;;;5031216;28;20426;-74
2023/10/28 10:56:56;;;;;;;3.40;1.50;;;20.60;97.00;;;;;;5031243;28;20493;-73
2023/10/28 10:59:22;;;;;;;5.63;1.50;;;21.10;97.10;;;;;;5034183;28;20584;-74
2023/10/28 11:01:47;;;;;;;3.63;1.40;;;21.60;97.00;;;;;;5034818;28;20409;-74
2023/10/28 11:04:13;;;;;;;3.50;1.57;;;21.30;96.40;;;;;;5034862;28;20219;-74
2023/10/28 11:06:39;;;;;;;4.93;1.70;;;20.20;96.80;;;;;;5033876;28;20167;-74
2023/10/28 11:09:06;;;;;;;6.33;1.67;;;19.50;97.70;;;;;;5034862;28;20780;-75
2023/10/28 11:11:35;;;;;;;6.40;2.03;;;18.80;99.40;;;;;;5034403;28;20591;-74
2023/10/28 11:14:05;;;;;;;5.00;1.80;;;18.20;99.90;;;;;;5034098;28;20422;-74
2023/10/28 11:16:32;;;;;;;5.10;1.77;;;17.70;99.90;;;;;;5034194;28;20426;-74
2023/10/28 11:19:02;;;;;;;2.77;1.67;;;17.30;99.90;;;;;;5034269;28;20987;-74
2023/10/28 11:21:30;;;;;;;4.73;1.77;;;17.30;99.90;;;;;;5034142;28;20437;-74
2023/10/28 11:23:56;;;;;;;4.40;1.40;;;17.20;99.90;;;;;;5016227;28;20414;-74
2023/10/28 11:26:23;;;;;;;3.87;1.30;;;16.90;99.90;;;;;;5034185;28;20475;-74
2023/10/28 11:28:48;;;;;;;3.07;1.30;;;16.80;99.90;;;;;;5034305;28;20193;-75
2023/10/28 11:31:20;;;;;;;1.93;1.10;;;17.00;99.90;;;;;;5034083;28;20402;-74
2023/10/28 11:33:46;;;;;;;3.90;1.70;;;17.00;99.90;;;;;;5017252;28;20865;-75
2023/10/28 11:36:12;;;;;;;4.80;1.37;;;17.10;99.90;;;;;;5034008;28;20458;-74
2023/10/28 11:38:38;;;;;;;3.77;1.50;;;17.00;99.90;;;;;;5034193;28;20441;-75
2023/10/28 11:41:05;;;;;;;5.27;1.70;;;17.00;99.90;;;;;;5034099;28;20199;-76
2023/10/28 11:43:30;;;;;;;3.40;1.83;;;16.80;99.90;;;;;;5034510;28;20430;-75
2023/10/28 11:45:56;;;;;;;3.87;1.50;;;16.80;99.90;;;;;;5033908;28;20457;-74
2023/10/28 11:48:22;;;;;;;3.50;1.27;;;16.90;99.90;;;;;;5016084;28;20163;-74
2023/10/28 11:50:48;;;;;;;5.07;1.97;;;16.80;99.90;;;;;;5033990;28;20171;-74
2023/10/28 11:53:17;;;;;;;2.60;1.50;;;16.70;99.90;;;;;;5034158;28;20649;-74
2023/10/28 11:55:45;;;;;;;5.00;1.50;;;16.60;99.90;;;;;;5033577;28;20911;-75
2023/10/28 11:58:10;;;;;;;4.43;1.77;;;16.60;99.90;;;;;;5033855;28;20406;-75
2023/10/28 12:00:36;;;;;;;2.70;1.47;;;16.60;99.90;;;;;;5033489;28;20445;-75
2023/10/28 12:03:04;;;;;;;3.23;1.67;;;16.60;99.90;;;;;;5033377;28;20677;-74
2023/10/28 12:05:33;;;;;;;8.00;2.40;;;16.50;99.90;;;;;;5033500;28;20248;-74
2023/10/28 12:07:59;;;;;;;3.73;2.00;;;16.60;99.90;;;;;;5033184;28;20444;-74
2023/10/28 12:10:25;;;;;;;3.07;1.50;;;16.80;99.90;;;;;;5032706;28;20913;-75
2023/10/28 12:12:51;;;;;;;4.20;2.00;;;16.90;99.90;;;;;;5033528;28;20203;-74
2023/10/28 12:15:16;;;;;;;5.10;2.07;;;16.70;99.90;;;;;;5033047;28;20572;-75
2023/10/28 12:17:44;;;;;;;5.70;2.50;;;16.50;99.90;;;;;;5033505;28;20170;-75
2023/10/28 12:20:14;;;;;;;3.63;1.93;;;16.20;99.90;;;;;;5033663;28;20184;-75
2023/10/28 12:22:40;;;;;;;4.27;2.20;;;16.30;99.90;;;;;;5032860;28;20429;-75
2023/10/28 12:25:06;;;;;;;4.63;1.73;;;16.30;99.90;;;;;;5033240;28;20480;-75
2023/10/28 12:27:32;;;;;;;2.90;1.67;;;16.50;99.90;;;;;;5033166;28;20497;-74
2023/10/28 12:29:57;;;;;;;3.00;1.90;;;16.90;99.90;;;;;;5033572;28;20198;-75
2023/10/28 12:32:23;;;;;;;5.67;2.37;;;17.10;99.90;;;;;;5033170;28;20432;-74
2023/10/28 12:34:49;;;;;;;5.87;1.67;;;17.20;99.90;;;;;;5032904;28;20205;-74
2023/10/28 12:37:14;;;;;;;4.33;1.90;;;17.40;99.90;;;;;;5032731;28;20530;-75
2023/10/28 12:39:40;;;;;;;4.90;1.80;;;17.50;99.90;;;;;;5032762;28;20607;-75
2023/10/28 12:42:05;;;;;;;7.40;2.27;;;17.50;99.90;;;;;;5033098;28;20174;-77
2023/10/28 12:44:31;;;;;;;6.63;2.03;;;17.80;99.90;;;;;;5032617;28;20262;-75